Time;durP1;ratioP1;P1;durP2;ratioP2;P2;SDS_P1;SDS_P2;PMS_P1;PMS_P2;Temp;Humidity;BMP_temperature;BMP_pressure;BME280_temperature;BME280_humidity;BME280_pressure;Samples;Min_cycle;Max_cycle;Signal;HPM_P1;HPM_P2
2021/03/17 00:00:07;;;;;;;27.38;11.77;;;;;;;1.97;75.59;99623.28;5065620;28;20029;-52
2021/03/17 00:02:33;;;;;;;25.38;11.27;;;;;;;2.32;75.65;99684.13;5065562;28;20025;-54
2021/03/17 00:04:59;;;;;;;21.38;11.25;;;;;;;2.23;75.28;99690.84;5065533;28;20047;-54
2021/03/17 00:07:24;;;;;;;22.25;10.35;;;;;;;2.39;75.82;99689.34;5065672;28;20036;-54
2021/03/17 00:09:50;;;;;;;28.63;12.20;;;;;;;2.20;74.75;99689.97;5065282;28;20028;-54
2021/03/17 00:12:16;;;;;;;16.60;10.40;;;;;;;2.15;75.27;99689.03;5065495;28;20044;-54
2021/03/17 00:14:42;;;;;;;35.72;14.10;;;;;;;2.11;75.19;99694.94;5065507;28;20025;-53
2021/03/17 00:17:07;;;;;;;29.50;11.38;;;;;;;2.07;75.65;99682.13;5065266;28;20036;-54
2021/03/17 00:19:33;;;;;;;21.15;10.43;;;;;;;1.65;75.74;99679.84;5065266;28;20036;-54
2021/03/17 00:22:00;;;;;;;26.30;10.88;;;;;;;1.87;75.34;99686.97;5065174;28;20025;-55
2021/03/17 00:24:26;;;;;;;26.58;10.75;;;;;;;1.83;75.16;99690.31;5065389;28;20036;-55
2021/03/17 00:26:52;;;;;;;26.55;10.82;;;;;;;1.61;76.59;99688.28;5065357;28;20117;-55
2021/03/17 00:29:19;;;;;;;19.45;10.98;;;;;;;1.73;76.03;99688.47;5065016;28;20098;-55
2021/03/17 00:31:44;;;;;;;22.80;10.57;;;;;;;1.80;75.98;99684.34;5065116;28;20029;-55
2021/03/17 00:34:10;;;;;;;19.75;10.68;;;;;;;1.92;75.60;99683.63;5065023;28;20028;-55
2021/03/17 00:36:36;;;;;;;27.75;10.65;;;;;;;1.65;76.45;99683.25;5063125;28;20037;-55
2021/03/17 00:39:02;;;;;;;27.02;10.07;;;;;;;1.73;75.55;99671.47;5051246;28;20104;-54
2021/03/17 00:41:28;;;;;;;22.80;10.48;;;;;;;1.65;75.97;99665.38;5064869;28;20064;-54
2021/03/17 00:43:56;;;;;;;22.95;11.07;;;;;;;1.71;75.72;99668.03;5064792;28;20068;-54
2021/03/17 00:46:21;;;;;;;22.00;11.75;;;;;;;1.93;75.90;99665.78;5064777;28;20037;-54
2021/03/17 00:48:47;;;;;;;27.35;10.70;;;;;;;1.77;75.27;99668.94;5064631;28;20083;-55
2021/03/17 00:51:14;;;;;;;21.77;9.60;;;;;;;1.78;75.03;99669.00;5064805;28;20102;-55
2021/03/17 00:53:39;;;;;;;23.92;10.35;;;;;;;1.53;76.00;99673.72;5064724;28;20033;-55
2021/03/17 00:56:05;;;;;;;23.17;10.38;;;;;;;1.64;75.61;99673.91;5064662;28;20355;-54
2021/03/17 00:58:31;;;;;;;27.45;10.57;;;;;;;1.49;75.89;99650.69;5064574;28;20035;-58
2021/03/17 01:00:57;;;;;;;27.30;10.50;;;;;;;1.50;75.81;99662.63;5063352;28;20117;-55
2021/03/17 01:03:23;;;;;;;23.85;10.13;;;;;;;1.58;75.56;99667.84;5064495;28;20222;-55
2021/03/17 01:05:49;;;;;;;18.50;9.95;;;;;;;1.51;75.45;99662.66;5064414;28;20060;-53
2021/03/17 01:08:14;;;;;;;20.80;9.95;;;;;;;1.34;75.46;99675.16;5064430;28;20060;-55
2021/03/17 01:10:46;;;;;;;20.20;10.18;;;;;;;1.46;75.24;99659.16;5063126;28;20051;-54
2021/03/17 01:13:13;;;;;;;23.30;9.63;;;;;;;1.42;75.48;99662.50;5064361;28;20025;-53
2021/03/17 01:15:40;;;;;;;24.85;9.85;;;;;;;1.54;74.97;99661.84;5064163;28;20091;-54
2021/03/17 01:18:07;;;;;;;32.03;10.50;;;;;;;1.49;74.62;99643.88;5064123;28;20102;-54
2021/03/17 01:20:35;;;;;;;18.33;9.35;;;;;;;1.54;74.66;99644.81;5064141;28;20226;-54
2021/03/17 01:23:01;;;;;;;26.10;9.73;;;;;;;1.37;74.94;99659.03;5064075;28;20028;-54
2021/03/17 01:25:36;;;;;;;25.67;9.25;;;;;;;0.94;75.13;99592.91;5062894;28;20138;-55
2021/03/17 01:28:04;;;;;;;18.00;8.88;;;;;;;0.71;74.99;99577.22;5064095;28;20235;-54
2021/03/17 01:30:35;;;;;;;21.50;9.48;;;;;;;1.26;74.95;99650.34;5063786;28;20084;-54
2021/03/17 01:33:02;;;;;;;23.67;9.60;;;;;;;1.38;74.56;99660.72;5064279;28;20329;-54
2021/03/17 01:35:28;;;;;;;16.65;8.45;;;;;;;1.44;74.27;99650.63;5063842;28;20090;-54
2021/03/17 01:37:54;;;;;;;19.52;8.63;;;;;;;1.57;74.39;99649.13;5063922;28;20029;-53
2021/03/17 01:40:23;;;;;;;21.17;8.77;;;;;;;1.29;73.66;99640.19;5063697;28;20063;-53
2021/03/17 01:42:49;;;;;;;21.98;9.30;;;;;;;1.48;73.74;99644.75;5063598;28;20028;-54
2021/03/17 01:45:16;;;;;;;20.23;9.45;;;;;;;1.43;73.99;99648.91;5063709;28;20088;-54
2021/03/17 01:47:43;;;;;;;21.88;9.90;;;;;;;1.28;74.25;99664.81;5063638;28;20257;-54
2021/03/17 01:50:13;;;;;;;27.90;8.95;;;;;;;1.24;74.13;99647.78;5062859;28;20032;-54
2021/03/17 01:52:39;;;;;;;21.58;8.13;;;;;;;1.07;74.57;99651.75;5063547;28;20096;-53
2021/03/17 01:55:06;;;;;;;15.70;8.15;;;;;;;1.49;74.49;99654.09;5063495;28;20252;-53
2021/03/17 01:57:33;;;;;;;18.23;8.55;;;;;;;1.54;72.58;99646.53;5063333;28;20025;-54
2021/03/17 01:59:59;;;;;;;20.40;8.55;;;;;;;1.41;73.02;99634.41;5062074;28;20025;-55
2021/03/17 02:02:25;;;;;;;20.38;8.52;;;;;;;1.39;73.17;99639.50;5063215;28;20300;-54
2021/03/17 02:04:51;;;;;;;16.25;8.07;;;;;;;1.37;72.80;99630.97;5063176;28;20021;-55
2021/03/17 02:07:17;;;;;;;23.25;8.48;;;;;;;1.39;72.79;99636.94;5063190;28;20029;-54
2021/03/17 02:09:43;;;;;;;23.30;8.52;;;;;;;1.31;73.19;99635.97;5063165;28;20032;-54
2021/03/17 02:12:26;;;;;;;22.00;8.43;;;;;;;1.28;73.36;99633.38;5063037;28;20041;-55
2021/03/17 02:15:23;;;;;;;20.00;8.90;;;;;;;1.38;74.48;99635.22;5063258;28;20029;-54
2021/03/17 02:17:49;;;;;;;18.45;8.98;;;;;;;1.37;74.31;99634.38;5062946;28;20067;-54
2021/03/17 02:20:39;;;;;;;21.27;9.07;;;;;;;1.35;74.25;99632.63;5062873;28;20048;-54
2021/03/17 02:23:13;;;;;;;24.75;9.15;;;;;;;1.32;74.23;99628.34;5062993;28;20033;-54
2021/03/17 02:26:06;;;;;;;19.17;8.23;;;;;;;1.06;73.88;99566.75;5063017;28;20048;-54
2021/03/17 02:28:59;;;;;;;19.40;9.23;;;;;;;1.06;73.91;99564.19;5062859;28;20388;-55
2021/03/17 02:31:53;;;;;;;19.88;8.10;;;;;;;1.08;74.72;99633.06;5061081;28;20110;-55
2021/03/17 02:34:23;;;;;;;24.00;8.68;;;;;;;1.05;74.61;99575.22;5062831;28;20078;-53
2021/03/17 02:36:59;;;;;;;18.10;8.32;;;;;;;1.25;74.64;99636.72;5062780;28;20031;-53
2021/03/17 02:40:08;;;;;;;19.00;9.07;;;;;;;1.37;74.66;99634.38;5062952;28;20064;-54
2021/03/17 02:42:45;;;;;;;24.63;8.90;;;;;;;1.17;74.59;99572.00;5062670;28;20029;-54
2021/03/17 02:45:16;;;;;;;21.40;9.02;;;;;;;0.98;74.11;99571.75;5062687;28;20234;-54
2021/03/17 02:48:04;;;;;;;17.85;8.48;;;;;;;1.45;74.17;99637.03;5062607;28;20021;-54
2021/03/17 02:50:35;;;;;;;15.57;8.27;;;;;;;1.50;73.99;99629.47;5062405;28;20053;-52
2021/03/17 02:53:04;;;;;;;25.33;8.20;;;;;;;0.80;73.81;99574.00;5062691;28;20241;-53
2021/03/17 02:55:36;;;;;;;17.35;8.10;;;;;;;1.16;74.72;99634.06;5062587;28;20222;-54
2021/03/17 02:58:05;;;;;;;19.05;8.82;;;;;;;1.04;74.78;99558.19;5062619;28;20064;-54
2021/03/17 03:00:31;;;;;;;15.43;8.00;;;;;;;1.33;73.88;99624.94;5062268;28;20024;-54
2021/03/17 03:02:59;;;;;;;21.88;8.38;;;;;;;1.14;74.15;99617.84;5061695;28;20021;-55
2021/03/17 03:05:27;;;;;;;21.48;8.30;;;;;;;0.72;74.61;99556.00;5062359;28;20043;-54
2021/03/17 03:08:00;;;;;;;13.48;7.13;;;;;;;0.96;75.25;99619.28;5062462;28;20206;-54
2021/03/17 03:10:29;;;;;;;21.13;7.30;;;;;;;0.42;74.98;99548.72;5062240;28;20068;-54
2021/03/17 03:12:56;;;;;;;20.25;7.43;;;;;;;0.89;74.77;99617.47;5062655;28;20029;-54
2021/03/17 03:15:26;;;;;;;22.10;7.55;;;;;;;1.11;74.26;99630.56;5062380;28;20331;-54
2021/03/17 03:17:52;;;;;;;12.73;5.97;;;;;;;1.17;74.63;99615.38;5062484;28;20113;-54
2021/03/17 03:20:21;;;;;;;14.52;6.45;;;;;;;0.72;74.14;99562.81;5062330;28;20020;-54
2021/03/17 03:22:47;;;;;;;12.18;6.45;;;;;;;0.94;74.41;99607.34;5062089;28;20025;-54
2021/03/17 03:25:15;;;;;;;15.18;6.93;;;;;;;1.17;74.11;99613.66;5062234;28;20063;-54
2021/03/17 03:27:45;;;;;;;17.23;7.38;;;;;;;1.25;73.90;99613.78;5062438;28;20075;-54
2021/03/17 03:30:15;;;;;;;17.67;7.57;;;;;;;0.97;73.07;99612.47;5060200;28;20066;-54
2021/03/17 03:32:42;;;;;;;18.55;7.30;;;;;;;0.76;73.65;99556.94;5050820;28;20261;-54
2021/03/17 03:35:11;;;;;;;25.00;7.72;;;;;;;0.98;73.97;99611.66;5042178;28;20044;-52
2021/03/17 03:37:37;;;;;;;13.63;5.47;;;;;;;0.79;73.85;99618.16;5042139;28;20049;-54
2021/03/17 03:40:14;;;;;;;17.15;7.20;;;;;;;0.85;73.39;99621.63;5054692;28;20031;-54
2021/03/17 03:42:40;;;;;;;15.07;6.32;;;;;;;0.78;72.93;99624.91;5060949;28;20052;-54
2021/03/17 03:45:09;;;;;;;13.38;6.15;;;;;;;0.10;73.09;99564.25;5061918;28;20026;-54
2021/03/17 03:47:36;;;;;;;13.32;6.13;;;;;;;0.41;72.97;99633.59;5061829;28;20041;-54
2021/03/17 03:50:03;;;;;;;9.38;6.05;;;;;;;0.29;74.80;99624.06;5061920;28;20029;-54
2021/03/17 03:52:49;;;;;;;18.40;6.93;;;;;;;0.40;73.63;99640.41;5061761;28;20029;-53
2021/03/17 03:55:29;;;;;;;16.25;6.97;;;;;;;0.15;73.52;99577.94;5062035;28;20332;-53
2021/03/17 03:58:02;;;;;;;18.50;6.18;;;;;;;0.50;73.19;99610.88;5061633;28;20036;-54
2021/03/17 04:00:32;;;;;;;12.73;6.43;;;;;;;0.00;72.48;99563.25;5040566;28;20037;-53
2021/03/17 04:02:59;;;;;;;17.63;6.70;;;;;;;-0.10;73.02;99544.41;5041619;28;20029;-53
2021/03/17 04:05:31;;;;;;;14.23;6.55;;;;;;;-0.01;73.22;99547.09;5042666;28;20087;-53
2021/03/17 04:08:04;;;;;;;16.52;6.68;;;;;;;0.51;72.53;99608.34;5041773;28;20250;-55
2021/03/17 04:10:32;;;;;;;14.93;5.82;;;;;;;0.41;72.50;99601.34;5057515;28;20052;-54
2021/03/17 04:13:01;;;;;;;16.63;6.53;;;;;;;0.65;71.74;99600.91;5062451;28;20075;-54
2021/03/17 04:15:27;;;;;;;16.90;7.10;;;;;;;0.56;72.13;99600.78;5065119;28;20028;-53
2021/03/17 04:18:00;;;;;;;10.65;5.57;;;;;;;0.47;71.83;99573.44;5064973;28;20040;-53
2021/03/17 04:20:33;;;;;;;14.65;5.65;;;;;;;0.15;71.57;99547.41;5065311;28;20052;-54
2021/03/17 04:23:00;;;;;;;14.63;5.97;;;;;;;0.54;72.02;99596.47;5064989;28;20088;-54
2021/03/17 04:25:27;;;;;;;18.55;6.72;;;;;;;0.30;71.58;99608.81;5065008;28;20088;-54
2021/03/17 04:27:54;;;;;;;12.13;6.32;;;;;;;0.24;72.34;99602.72;5064862;28;20025;-54
2021/03/17 04:30:22;;;;;;;13.65;6.28;;;;;;;-0.02;71.74;99534.34;5062133;28;20207;-54
2021/03/17 04:32:50;;;;;;;18.65;6.50;;;;;;;0.47;71.08;99611.66;5064872;28;20074;-55
2021/03/17 04:35:17;;;;;;;10.15;6.70;;;;;;;0.30;71.95;99607.91;5064803;28;20028;-55
2021/03/17 04:37:46;;;;;;;13.10;5.88;;;;;;;-0.19;71.24;99550.13;5064798;28;20052;-55
2021/03/17 04:40:13;;;;;;;11.68;6.13;;;;;;;0.38;71.53;99611.47;5064851;28;20029;-54
2021/03/17 04:42:40;;;;;;;12.38;6.95;;;;;;;0.26;71.20;99617.22;5064413;28;20059;-54
2021/03/17 04:45:09;;;;;;;11.95;6.25;;;;;;;0.48;70.43;99603.16;5064608;28;20278;-55
2021/03/17 04:47:38;;;;;;;16.20;6.90;;;;;;;0.12;70.29;99554.97;5064753;28;20043;-56
2021/03/17 04:50:06;;;;;;;13.93;6.13;;;;;;;0.57;70.25;99611.81;5064585;28;20369;-56
2021/03/17 04:52:35;;;;;;;10.23;5.47;;;;;;;0.49;68.95;99601.50;5064511;28;20052;-55
2021/03/17 04:55:02;;;;;;;11.40;5.60;;;;;;;0.56;68.89;99610.97;5064423;28;20021;-54
2021/03/17 04:57:33;;;;;;;11.88;5.97;;;;;;;0.66;69.70;99599.25;5064036;28;20043;-55
2021/03/17 04:59:59;;;;;;;16.02;5.40;;;;;;;0.57;69.44;99611.81;5064293;28;20029;-55
2021/03/17 05:02:29;;;;;;;14.18;5.93;;;;;;;0.52;69.07;99584.56;5063974;28;20063;-55
2021/03/17 05:04:55;;;;;;;14.00;5.35;;;;;;;0.60;69.41;99606.75;5064143;28;20209;-55
2021/03/17 05:07:22;;;;;;;8.80;5.05;;;;;;;0.59;68.87;99608.47;5045690;28;20037;-55
2021/03/17 05:09:49;;;;;;;12.73;5.07;;;;;;;0.29;68.80;99611.31;5052173;28;20021;-56
2021/03/17 05:12:16;;;;;;;11.30;5.05;;;;;;;0.21;69.56;99617.94;5062524;28;20423;-55
2021/03/17 05:14:47;;;;;;;12.93;5.18;;;;;;;0.50;69.16;99598.13;5063160;28;20078;-55
2021/03/17 05:17:15;;;;;;;16.58;5.28;;;;;;;0.43;68.82;99609.88;5063335;28;20035;-55
2021/03/17 05:19:42;;;;;;;8.07;4.95;;;;;;;0.71;68.90;99600.16;5063738;28;20028;-55
2021/03/17 05:22:10;;;;;;;10.13;4.85;;;;;;;0.72;67.99;99603.59;5063543;28;20317;-55
2021/03/17 05:24:37;;;;;;;9.23;4.53;;;;;;;0.39;68.91;99604.72;5062919;28;20033;-56
2021/03/17 05:27:08;;;;;;;8.57;4.35;;;;;;;0.60;68.35;99615.28;5063812;28;20381;-55
2021/03/17 05:29:38;;;;;;;9.52;4.68;;;;;;;0.84;67.17;99652.19;5060237;28;20021;-55
2021/03/17 05:32:04;;;;;;;7.93;5.15;;;;;;;0.76;67.88;99602.81;5063617;28;20035;-55
2021/03/17 05:34:34;;;;;;;12.35;5.00;;;;;;;-0.01;68.60;99524.19;5063401;28;20249;-56
2021/03/17 05:37:00;;;;;;;15.00;4.93;;;;;;;0.54;68.14;99596.47;5063643;28;20031;-56
2021/03/17 05:39:26;;;;;;;12.40;5.15;;;;;;;0.74;68.43;99594.25;5063457;28;20222;-55
2021/03/17 05:41:52;;;;;;;10.50;4.80;;;;;;;0.47;68.51;99595.50;5063437;28;20024;-55
2021/03/17 05:44:19;;;;;;;15.20;5.38;;;;;;;0.95;68.87;99598.88;5063622;28;20133;-55
2021/03/17 05:46:48;;;;;;;10.32;4.75;;;;;;;0.06;67.68;99532.81;5063144;28;20045;-55
2021/03/17 05:49:14;;;;;;;12.60;4.65;;;;;;;0.58;67.50;99588.06;5062311;28;20021;-55
2021/03/17 05:51:40;;;;;;;13.30;4.72;;;;;;;0.62;67.54;99588.13;5063314;28;20210;-55
2021/03/17 05:54:08;;;;;;;12.15;4.78;;;;;;;0.67;66.49;99590.75;5063328;28;20033;-55
2021/03/17 05:56:36;;;;;;;11.65;5.10;;;;;;;0.65;67.25;99606.00;5063227;28;20343;-54
2021/03/17 05:59:02;;;;;;;9.77;4.75;;;;;;;0.37;66.47;99593.63;5063269;28;20029;-54
2021/03/17 06:01:28;;;;;;;13.68;4.82;;;;;;;0.13;67.86;99592.34;5063199;28;20025;-55
2021/03/17 06:03:55;;;;;;;12.50;4.70;;;;;;;0.43;67.57;99584.41;5054174;28;20029;-54
2021/03/17 06:06:23;;;;;;;15.40;5.35;;;;;;;0.56;65.57;99590.56;5043236;28;20036;-55
2021/03/17 06:08:54;;;;;;;12.25;4.93;;;;;;;0.11;66.19;99537.97;5043595;28;20044;-55
2021/03/17 06:11:22;;;;;;;10.73;4.82;;;;;;;0.39;66.54;99597.91;5063244;28;20036;-54
2021/03/17 06:13:50;;;;;;;14.75;5.50;;;;;;;0.40;66.26;99604.75;5063026;28;20244;-54
2021/03/17 06:16:19;;;;;;;11.75;4.75;;;;;;;0.39;66.45;99587.72;5062983;28;20029;-54
2021/03/17 06:19:00;;;;;;;13.82;5.47;;;;;;;0.05;67.12;99582.00;5063109;28;20392;-55
2021/03/17 06:21:26;;;;;;;18.17;5.80;;;;;;;0.20;67.03;99580.56;5043039;28;20021;-55
2021/03/17 06:23:52;;;;;;;13.18;5.63;;;;;;;0.48;67.69;99582.78;5042974;28;20087;-55
2021/03/17 06:26:18;;;;;;;11.98;5.35;;;;;;;0.31;67.65;99586.72;5042986;28;20032;-55
2021/03/17 06:28:45;;;;;;;14.68;6.10;;;;;;;0.20;67.72;99585.66;5046367;28;20107;-55
2021/03/17 06:31:12;;;;;;;15.38;5.85;;;;;;;0.13;68.28;99595.75;5062613;28;20322;-55
2021/03/17 06:33:41;;;;;;;10.43;5.22;;;;;;;0.32;68.03;99589.28;5062433;28;20296;-55
2021/03/17 06:36:11;;;;;;;12.93;5.50;;;;;;;-0.02;66.98;99570.84;5062323;28;20033;-55
2021/03/17 06:38:37;;;;;;;15.88;4.60;;;;;;;0.16;67.07;99605.13;5062922;28;20100;-55
2021/03/17 06:41:03;;;;;;;7.88;4.57;;;;;;;0.01;66.41;99594.66;5062695;28;20082;-56
2021/03/17 06:43:43;;;;;;;10.10;4.78;;;;;;;0.10;66.33;99519.31;5062546;28;20052;-55
2021/03/17 06:46:18;;;;;;;7.82;4.55;;;;;;;0.45;65.34;99598.00;5062600;28;20214;-55
2021/03/17 06:48:44;;;;;;;14.25;5.43;;;;;;;0.56;66.16;99577.00;5062586;28;20310;-55
2021/03/17 06:51:11;;;;;;;12.23;4.47;;;;;;;0.48;66.20;99579.38;5062648;28;20263;-55
2021/03/17 06:53:49;;;;;;;16.45;5.22;;;;;;;0.16;65.72;99523.66;5062549;28;20039;-56
2021/03/17 06:56:19;;;;;;;17.30;5.60;;;;;;;0.42;65.97;99576.75;5062570;28;20033;-55
2021/03/17 06:58:48;;;;;;;12.13;5.07;;;;;;;0.28;65.99;99591.78;5061625;28;20049;-55
2021/03/17 07:01:26;;;;;;;12.73;5.22;;;;;;;0.63;66.29;99582.19;5062059;28;20035;-56
2021/03/17 07:03:56;;;;;;;11.25;5.63;;;;;;;0.58;65.76;99573.63;5061883;28;20358;-55
2021/03/17 07:06:22;;;;;;;13.95;5.40;;;;;;;0.14;65.93;99571.13;5062289;28;20029;-56
2021/03/17 07:08:48;;;;;;;12.63;5.63;;;;;;;0.47;66.13;99575.13;5061776;28;20055;-56
2021/03/17 07:11:29;;;;;;;14.95;5.45;;;;;;;-0.02;65.50;99521.63;5060161;28;20245;-55
2021/03/17 07:13:58;;;;;;;14.18;5.45;;;;;;;0.46;64.90;99564.06;5059333;28;20330;-57
2021/03/17 07:16:37;;;;;;;16.27;6.25;;;;;;;0.41;65.83;99508.78;5060305;28;20037;-56
2021/03/17 07:19:05;;;;;;;14.20;6.22;;;;;;;0.83;64.60;99569.78;5060500;28;20053;-56
2021/03/17 07:21:33;;;;;;;15.70;6.68;;;;;;;0.55;64.59;99511.56;5060253;28;20025;-56
2021/03/17 07:23:59;;;;;;;16.48;6.30;;;;;;;1.00;64.08;99575.16;5060086;28;20024;-56
2021/03/17 07:26:30;;;;;;;19.08;6.72;;;;;;;1.08;64.36;99552.31;5060118;28;20131;-56
2021/03/17 07:28:58;;;;;;;12.80;6.45;;;;;;;0.76;63.92;99522.09;5059911;28;20021;-56
2021/03/17 07:31:35;;;;;;;15.43;6.60;;;;;;;0.56;64.36;99523.50;5059426;28;20313;-56
2021/03/17 07:34:13;;;;;;;10.52;5.78;;;;;;;0.84;63.89;99558.78;5040297;28;20308;-56
2021/03/17 07:36:51;;;;;;;11.93;6.07;;;;;;;0.64;63.61;99483.66;5041551;28;20021;-56
2021/03/17 07:39:22;;;;;;;19.00;6.53;;;;;;;1.06;63.48;99561.63;5044620;28;20045;-55
2021/03/17 07:41:52;;;;;;;14.27;7.15;;;;;;;1.24;63.71;99555.09;5061684;28;20225;-56
2021/03/17 07:44:18;;;;;;;14.90;5.93;;;;;;;1.48;63.30;99555.44;5061867;28;20056;-55
2021/03/17 07:46:47;;;;;;;16.15;6.10;;;;;;;1.24;63.24;99499.84;5061674;28;20068;-56
2021/03/17 07:49:14;;;;;;;14.63;6.60;;;;;;;1.29;62.40;99549.22;5064682;28;20096;-56
2021/03/17 07:51:45;;;;;;;14.00;5.97;;;;;;;1.33;62.04;99563.72;5065411;28;20222;-55
2021/03/17 07:54:18;;;;;;;17.57;5.90;;;;;;;0.76;62.50;99506.81;5064039;28;20098;-54
2021/03/17 07:56:44;;;;;;;11.77;6.20;;;;;;;1.38;62.20;99546.81;5064990;28;20266;-55
2021/03/17 07:59:11;;;;;;;14.40;6.10;;;;;;;1.11;62.40;99547.28;5065295;28;20063;-55
2021/03/17 08:01:38;;;;;;;14.75;5.65;;;;;;;1.29;62.55;99550.91;5065064;28;20088;-56
2021/03/17 08:04:05;;;;;;;15.68;5.80;;;;;;;1.39;62.13;99555.31;5065123;28;20040;-55
2021/03/17 08:06:32;;;;;;;18.90;6.75;;;;;;;1.09;61.92;99542.97;5064134;28;20064;-55
2021/03/17 08:08:59;;;;;;;18.90;6.13;;;;;;;1.45;62.34;99549.44;5064949;28;20060;-55
2021/03/17 08:11:27;;;;;;;9.50;5.85;;;;;;;1.22;62.74;99542.31;5045082;28;20033;-55
2021/03/17 08:13:54;;;;;;;12.98;6.05;;;;;;;1.12;62.94;99522.63;5045030;28;20040;-56
2021/03/17 08:16:21;;;;;;;9.38;6.00;;;;;;;1.01;62.97;99532.66;5045117;28;20056;-55
2021/03/17 08:18:50;;;;;;;13.00;6.00;;;;;;;1.04;62.94;99471.50;5044883;28;20048;-56
2021/03/17 08:21:46;;;;;;;15.60;5.78;;;;;;;0.92;63.43;99538.47;5063686;28;20214;-56
2021/03/17 08:24:30;;;;;;;16.98;6.22;;;;;;;1.28;63.92;99531.34;5065203;28;20025;-55
2021/03/17 08:26:57;;;;;;;12.00;5.50;;;;;;;0.73;63.20;99533.91;5065143;28;20302;-55
2021/03/17 08:29:34;;;;;;;10.65;5.30;;;;;;;0.66;64.10;99535.53;5059173;28;20084;-55
2021/03/17 08:32:00;;;;;;;12.20;6.35;;;;;;;1.01;63.74;99537.75;5064999;28;20094;-55
2021/03/17 08:34:28;;;;;;;17.08;6.38;;;;;;;1.16;63.26;99535.44;5065042;28;20273;-55
2021/03/17 08:36:58;;;;;;;11.82;5.72;;;;;;;1.01;62.97;99494.41;5063886;28;20334;-55
2021/03/17 08:39:29;;;;;;;14.25;6.40;;;;;;;1.52;62.93;99518.03;5064844;28;20369;-54
2021/03/17 08:41:57;;;;;;;11.88;5.88;;;;;;;1.35;62.62;99448.94;5061868;28;20078;-55
2021/03/17 08:44:24;;;;;;;15.30;5.80;;;;;;;1.81;61.43;99526.06;5062298;28;20036;-55
2021/03/17 08:46:51;;;;;;;16.48;5.85;;;;;;;1.72;61.20;99510.63;5063673;28;20029;-55
2021/03/17 08:49:45;;;;;;;18.98;5.35;;;;;;;1.27;61.66;99514.31;5062419;28;20040;-54
2021/03/17 08:52:15;;;;;;;12.57;5.18;;;;;;;1.71;61.36;99517.44;5060839;28;20037;-55
2021/03/17 08:54:45;;;;;;;15.60;5.72;;;;;;;1.77;60.81;99501.34;5062375;28;20305;-55
2021/03/17 08:57:13;;;;;;;15.40;5.65;;;;;;;1.82;60.56;99445.22;5064558;28;20036;-56
2021/03/17 08:59:45;;;;;;;19.38;6.28;;;;;;;1.72;59.84;99508.06;5063307;28;20221;-55
2021/03/17 09:02:19;;;;;;;10.32;4.95;;;;;;;1.75;59.86;99482.56;5062118;28;20240;-54
2021/03/17 09:04:49;;;;;;;11.68;5.93;;;;;;;2.18;60.16;99487.25;5060240;28;20334;-54
2021/03/17 09:07:17;;;;;;;13.68;6.38;;;;;;;2.33;59.54;99496.78;5049559;28;20040;-57
2021/03/17 09:09:47;;;;;;;17.90;6.93;;;;;;;2.21;nan;99493.25;5046825;28;20368;-56
2021/03/17 09:12:13;;;;;;;14.40;6.28;;;;;;;1.81;60.09;99492.88;5048447;28;20040;-57
2021/03/17 09:14:39;;;;;;;15.00;5.75;;;;;;;2.18;60.14;99493.25;5048675;28;20078;-56
2021/03/17 09:17:28;;;;;;;16.65;5.68;;;;;;;2.33;59.66;99482.28;5055892;28;20199;-56
2021/03/17 09:20:02;;;;;;;12.20;4.95;;;;;;;1.50;59.87;99433.81;5053945;28;20048;-57
2021/03/17 09:22:40;;;;;;;11.90;5.65;;;;;;;2.46;59.84;99485.81;5056419;28;20037;-57
2021/03/17 09:25:15;;;;;;;11.10;5.68;;;;;;;2.37;58.73;99490.84;5055832;28;20037;-57
2021/03/17 09:27:50;;;;;;;10.73;5.03;;;;;;;2.34;59.00;99504.44;5043697;28;20033;-57
2021/03/17 09:30:18;;;;;;;20.17;6.15;;;;;;;2.30;59.92;99486.53;5056379;28;20106;-57
2021/03/17 09:32:44;;;;;;;14.43;6.10;;;;;;;2.26;58.98;99488.19;5051110;28;20095;-57
2021/03/17 09:35:12;;;;;;;13.23;5.68;;;;;;;2.01;58.60;99484.53;5062616;28;20032;-56
2021/03/17 09:37:38;;;;;;;14.70;5.88;;;;;;;1.87;59.79;99477.59;5052453;28;20063;-57
2021/03/17 09:40:06;;;;;;;19.35;5.60;;;;;;;2.07;59.62;99474.41;5055380;28;20037;-57
2021/03/17 09:42:39;;;;;;;18.90;6.75;;;;;;;1.96;59.28;99481.94;5054971;28;20033;-56
2021/03/17 09:45:07;;;;;;;18.58;6.13;;;;;;;1.53;59.40;99426.19;5051611;28;20040;-56
2021/03/17 09:47:33;;;;;;;16.65;5.95;;;;;;;1.83;59.83;99475.84;5043655;28;20028;-56
2021/03/17 09:49:59;;;;;;;19.77;5.72;;;;;;;2.29;59.41;99477.16;5048141;28;20025;-56
2021/03/17 09:52:25;;;;;;;13.32;5.97;;;;;;;2.50;59.85;99487.53;5057873;28;20199;-57
2021/03/17 09:54:51;;;;;;;15.15;5.47;;;;;;;2.55;58.73;99470.56;5046294;28;20206;-56
2021/03/17 09:57:17;;;;;;;18.85;6.65;;;;;;;2.78;58.62;99469.00;5058050;28;20047;-56
2021/03/17 09:59:44;;;;;;;21.52;5.80;;;;;;;3.00;58.90;99465.72;5059302;28;20276;-56
2021/03/17 10:02:18;;;;;;;15.30;5.75;;;;;;;2.55;57.97;99403.22;5047433;28;20037;-56
2021/03/17 10:04:49;;;;;;;16.70;6.47;;;;;;;2.58;58.69;99465.47;5062573;28;20211;-58
2021/03/17 10:07:20;;;;;;;16.88;6.43;;;;;;;2.33;58.77;99466.13;5050233;28;20022;-56
2021/03/17 10:09:47;;;;;;;12.67;5.27;;;;;;;1.92;59.14;99453.81;5059665;28;20041;-57
2021/03/17 10:12:26;;;;;;;20.48;6.05;;;;;;;2.27;59.84;99468.59;5055080;28;20258;-56
2021/03/17 10:14:56;;;;;;;17.08;6.07;;;;;;;2.33;58.79;99466.13;5043313;28;20029;-57
2021/03/17 10:17:25;;;;;;;19.33;5.85;;;;;;;2.33;58.29;99438.84;5048654;28;20310;-56
2021/03/17 10:20:04;;;;;;;16.52;5.80;;;;;;;2.56;57.59;99398.13;5049250;28;20368;-56
2021/03/17 10:22:31;;;;;;;14.20;5.93;;;;;;;2.58;57.54;99445.00;5049607;28;20029;-57
2021/03/17 10:24:59;;;;;;;19.35;6.10;;;;;;;2.58;57.58;99388.78;5062169;28;20044;-56
2021/03/17 10:27:27;;;;;;;17.08;6.20;;;;;;;2.81;57.57;99395.72;5062227;28;20110;-56
2021/03/17 10:30:00;;;;;;;20.67;5.90;;;;;;;3.10;58.39;99405.22;5053510;28;20027;-57
2021/03/17 10:32:27;;;;;;;20.65;5.55;;;;;;;3.05;57.06;99455.50;5042754;28;20066;-57
2021/03/17 10:34:53;;;;;;;21.20;5.70;;;;;;;2.77;56.94;99460.47;5042918;28;20025;-57
2021/03/17 10:37:21;;;;;;;19.23;5.85;;;;;;;2.89;56.24;99447.78;5042649;28;20029;-57
2021/03/17 10:39:48;;;;;;;25.08;6.53;;;;;;;2.88;56.89;99446.06;5049536;28;20037;-57
2021/03/17 10:42:22;;;;;;;25.02;5.95;;;;;;;3.03;56.32;99444.41;5056401;28;20306;-56
2021/03/17 10:45:15;;;;;;;17.17;5.45;;;;;;;2.92;56.09;99459.69;5059617;28;20302;-57
2021/03/17 10:47:42;;;;;;;23.42;5.72;;;;;;;2.91;56.85;99442.66;5054513;28;20033;-57
2021/03/17 10:50:11;;;;;;;24.02;6.47;;;;;;;2.83;56.25;99382.94;5047715;28;20229;-57
2021/03/17 10:52:40;;;;;;;37.38;6.97;;;;;;;2.96;55.84;99382.13;5058016;28;20047;-57
2021/03/17 10:55:20;;;;;;;28.63;6.25;;;;;;;3.31;55.00;99434.28;5047378;28;20075;-57
2021/03/17 10:57:47;;;;;;;24.90;5.68;;;;;;;2.98;55.14;99440.97;5047474;28;20029;-56
2021/03/17 11:00:25;;;;;;;30.77;6.30;;;;;;;3.38;54.39;99434.34;5050500;28;20032;-56
2021/03/17 11:02:52;;;;;;;19.67;5.20;;;;;;;3.42;54.70;99424.94;5059968;28;20052;-57
2021/03/17 11:05:20;;;;;;;24.40;6.03;;;;;;;3.48;54.19;99429.25;5048862;28;20033;-56
2021/03/17 11:08:06;;;;;;;30.85;5.90;;;;;;;3.56;53.71;99425.88;5058564;28;20053;-57
2021/03/17 11:10:37;;;;;;;30.60;7.13;;;;;;;3.15;53.86;99365.19;5055730;28;20229;-57
2021/03/17 11:13:09;;;;;;;35.78;5.90;;;;;;;3.09;54.17;99417.19;5041836;28;20032;-57
2021/03/17 11:15:35;;;;;;;;;;;;;;;3.13;54.58;99427.41;5041862;28;20029;-57
2021/03/17 11:18:01;;;;;;;23.05;6.25;;;;;;;2.84;55.28;99425.56;5049573;28;19925;-57
2021/03/17 11:20:27;;;;;;;25.33;6.20;;;;;;;3.31;55.30;99413.81;5055718;28;20021;-57
2021/03/17 11:22:54;;;;;;;34.10;5.60;;;;;;;2.78;55.05;99428.06;5053805;28;20561;-58
2021/03/17 11:25:24;;;;;;;27.77;5.80;;;;;;;2.78;55.66;99417.84;5060440;28;20029;-57
2021/03/17 11:27:50;;;;;;;41.05;6.32;;;;;;;2.79;55.53;99415.28;5062353;28;20040;-57
2021/03/17 11:30:17;;;;;;;40.35;6.25;;;;;;;2.85;55.32;99399.13;5053992;28;20104;-57
2021/03/17 11:32:43;;;;;;;37.28;6.80;;;;;;;3.36;55.76;99414.72;5060316;28;20021;-56
2021/03/17 11:35:10;;;;;;;32.72;6.72;;;;;;;3.03;55.11;99412.00;5058014;28;20202;-58
2021/03/17 11:37:36;;;;;;;33.92;6.20;;;;;;;2.92;54.65;99416.22;5050127;28;20222;-58
2021/03/17 11:40:04;;;;;;;33.95;6.18;;;;;;;3.13;55.71;99405.22;5054261;28;20033;-57
2021/03/17 11:42:31;;;;;;;35.97;6.28;;;;;;;2.85;55.82;99404.25;5049464;28;20084;-56
2021/03/17 11:44:57;;;;;;;32.22;5.97;;;;;;;2.93;55.53;99400.88;5053917;28;20041;-57